sensor_id;sensor_type;location;lat;lon;timestamp;P1;durP1;ratioP1;P2;durP2;ratioP2
13002;SDS011;66869;57.706;11.922;2023-05-17T00:00:10;3.33;;;0.40;;
13002;SDS011;66869;57.706;11.922;2023-05-17T00:02:40;0.55;;;0.10;;
13002;SDS011;66869;57.706;11.922;2023-05-17T00:05:07;1.27;;;0.13;;
13002;SDS011;66869;57.706;11.922;2023-05-17T00:07:35;3.13;;;0.30;;
13002;SDS011;66869;57.706;11.922;2023-05-17T00:10:00;3.03;;;0.32;;
13002;SDS011;66869;57.706;11.922;2023-05-17T00:12:27;4.55;;;0.40;;
13002;SDS011;66869;57.706;11.922;2023-05-17T00:14:53;0.63;;;0.20;;
13002;SDS011;66869;57.706;11.922;2023-05-17T00:17:20;0.73;;;0.22;;
13002;SDS011;66869;57.706;11.922;2023-05-17T00:19:46;0.20;;;0.20;;
13002;SDS011;66869;57.706;11.922;2023-05-17T00:22:13;0.20;;;0.20;;
13002;SDS011;66869;57.706;11.922;2023-05-17T00:24:38;0.20;;;0.10;;
13002;SDS011;66869;57.706;11.922;2023-05-17T00:27:04;1.90;;;0.10;;
13002;SDS011;66869;57.706;11.922;2023-05-17T00:29:31;0.40;;;0.25;;
13002;SDS011;66869;57.706;11.922;2023-05-17T00:31:57;0.60;;;0.10;;
13002;SDS011;66869;57.706;11.922;2023-05-17T00:34:23;0.45;;;0.10;;
13002;SDS011;66869;57.706;11.922;2023-05-17T00:36:50;2.00;;;0.20;;
13002;SDS011;66869;57.706;11.922;2023-05-17T00:39:16;0.30;;;0.10;;
13002;SDS011;66869;57.706;11.922;2023-05-17T00:41:42;1.02;;;0.10;;
13002;SDS011;66869;57.706;11.922;2023-05-17T00:44:08;0.00;;;0.00;;
13002;SDS011;66869;57.706;11.922;2023-05-17T00:46:33;0.63;;;0.10;;
13002;SDS011;66869;57.706;11.922;2023-05-17T00:48:59;0.45;;;0.20;;
13002;SDS011;66869;57.706;11.922;2023-05-17T00:51:26;0.68;;;0.10;;
13002;SDS011;66869;57.706;11.922;2023-05-17T00:53:57;3.78;;;0.30;;
13002;SDS011;66869;57.706;11.922;2023-05-17T00:56:22;1.65;;;0.30;;
13002;SDS011;66869;57.706;11.922;2023-05-17T00:58:48;0.45;;;0.20;;
13002;SDS011;66869;57.706;11.922;2023-05-17T01:01:15;8.20;;;0.50;;
13002;SDS011;66869;57.706;11.922;2023-05-17T01:03:41;4.20;;;0.38;;
13002;SDS011;66869;57.706;11.922;2023-05-17T01:06:08;3.80;;;0.40;;
13002;SDS011;66869;57.706;11.922;2023-05-17T01:08:35;1.30;;;0.20;;
13002;SDS011;66869;57.706;11.922;2023-05-17T01:11:13;1.38;;;0.20;;
13002;SDS011;66869;57.706;11.922;2023-05-17T01:16:47;1.10;;;0.40;;
13002;SDS011;66869;57.706;11.922;2023-05-17T01:24:39;0.85;;;0.28;;
13002;SDS011;66869;57.706;11.922;2023-05-17T01:27:09;0.50;;;0.20;;
13002;SDS011;66869;57.706;11.922;2023-05-17T01:29:35;0.70;;;0.10;;
13002;SDS011;66869;57.706;11.922;2023-05-17T01:32:02;0.20;;;0.10;;
13002;SDS011;66869;57.706;11.922;2023-05-17T01:34:31;1.77;;;0.20;;
13002;SDS011;66869;57.706;11.922;2023-05-17T01:36:57;0.88;;;0.20;;
13002;SDS011;66869;57.706;11.922;2023-05-17T01:39:23;1.00;;;0.20;;
13002;SDS011;66869;57.706;11.922;2023-05-17T01:47:44;0.88;;;0.30;;
13002;SDS011;66869;57.706;11.922;2023-05-17T01:50:11;0.40;;;0.10;;
13002;SDS011;66869;57.706;11.922;2023-05-17T01:52:49;1.55;;;0.20;;
13002;SDS011;66869;57.706;11.922;2023-05-17T01:55:29;0.98;;;0.20;;
13002;SDS011;66869;57.706;11.922;2023-05-17T01:57:56;1.30;;;0.10;;
13002;SDS011;66869;57.706;11.922;2023-05-17T02:00:23;0.22;;;0.10;;
13002;SDS011;66869;57.706;11.922;2023-05-17T02:02:50;0.10;;;0.10;;
13002;SDS011;66869;57.706;11.922;2023-05-17T02:05:17;0.10;;;0.10;;
13002;SDS011;66869;57.706;11.922;2023-05-17T02:07:43;1.50;;;0.10;;
13002;SDS011;66869;57.706;11.922;2023-05-17T02:10:10;0.32;;;0.20;;
13002;SDS011;66869;57.706;11.922;2023-05-17T02:12:36;0.98;;;0.20;;
13002;SDS011;66869;57.706;11.922;2023-05-17T02:15:03;0.82;;;0.20;;
13002;SDS011;66869;57.706;11.922;2023-05-17T02:17:29;0.13;;;0.13;;
13002;SDS011;66869;57.706;11.922;2023-05-17T02:19:55;0.80;;;0.30;;
13002;SDS011;66869;57.706;11.922;2023-05-17T02:22:20;0.20;;;0.13;;
13002;SDS011;66869;57.706;11.922;2023-05-17T02:24:47;0.75;;;0.17;;
13002;SDS011;66869;57.706;11.922;2023-05-17T02:27:14;0.80;;;0.22;;
13002;SDS011;66869;57.706;11.922;2023-05-17T02:29:40;0.30;;;0.17;;
13002;SDS011;66869;57.706;11.922;2023-05-17T02:32:08;0.52;;;0.20;;
13002;SDS011;66869;57.706;11.922;2023-05-17T02:34:34;0.17;;;0.17;;
13002;SDS011;66869;57.706;11.922;2023-05-17T02:37:00;2.67;;;0.25;;
13002;SDS011;66869;57.706;11.922;2023-05-17T02:39:27;0.30;;;0.10;;
13002;SDS011;66869;57.706;11.922;2023-05-17T02:41:52;0.47;;;0.20;;
13002;SDS011;66869;57.706;11.922;2023-05-17T02:44:19;2.58;;;0.20;;
13002;SDS011;66869;57.706;11.922;2023-05-17T02:46:46;0.35;;;0.20;;
13002;SDS011;66869;57.706;11.922;2023-05-17T02:49:12;0.85;;;0.30;;
13002;SDS011;66869;57.706;11.922;2023-05-17T02:51:39;0.10;;;0.10;;
13002;SDS011;66869;57.706;11.922;2023-05-17T02:54:05;0.98;;;0.30;;
13002;SDS011;66869;57.706;11.922;2023-05-17T02:56:30;0.10;;;0.10;;
13002;SDS011;66869;57.706;11.922;2023-05-17T02:58:57;0.63;;;0.20;;
13002;SDS011;66869;57.706;11.922;2023-05-17T03:01:26;3.13;;;0.20;;
13002;SDS011;66869;57.706;11.922;2023-05-17T03:03:53;0.28;;;0.10;;
13002;SDS011;66869;57.706;11.922;2023-05-17T03:06:20;0.65;;;0.00;;
13002;SDS011;66869;57.706;11.922;2023-05-17T03:08:47;0.82;;;0.30;;
13002;SDS011;66869;57.706;11.922;2023-05-17T03:11:13;0.25;;;0.10;;
13002;SDS011;66869;57.706;11.922;2023-05-17T03:13:40;1.45;;;0.10;;
13002;SDS011;66869;57.706;11.922;2023-05-17T03:16:06;0.13;;;0.13;;
13002;SDS011;66869;57.706;11.922;2023-05-17T03:18:34;0.52;;;0.20;;
13002;SDS011;66869;57.706;11.922;2023-05-17T03:21:01;3.58;;;0.35;;
13002;SDS011;66869;57.706;11.922;2023-05-17T03:23:28;0.10;;;0.10;;
13002;SDS011;66869;57.706;11.922;2023-05-17T03:25:54;3.30;;;0.30;;
13002;SDS011;66869;57.706;11.922;2023-05-17T03:28:20;5.18;;;0.47;;
13002;SDS011;66869;57.706;11.922;2023-05-17T03:30:47;0.65;;;0.10;;
13002;SDS011;66869;57.706;11.922;2023-05-17T03:33:14;0.17;;;0.10;;
13002;SDS011;66869;57.706;11.922;2023-05-17T03:35:40;0.20;;;0.10;;
13002;SDS011;66869;57.706;11.922;2023-05-17T03:38:07;0.50;;;0.22;;
13002;SDS011;66869;57.706;11.922;2023-05-17T03:40:34;2.80;;;0.35;;
13002;SDS011;66869;57.706;11.922;2023-05-17T03:43:00;2.92;;;0.30;;
13002;SDS011;66869;57.706;11.922;2023-05-17T03:45:26;0.40;;;0.20;;
13002;SDS011;66869;57.706;11.922;2023-05-17T03:47:51;0.50;;;0.08;;
13002;SDS011;66869;57.706;11.922;2023-05-17T03:50:18;1.00;;;0.20;;
13002;SDS011;66869;57.706;11.922;2023-05-17T03:52:44;0.40;;;0.10;;
13002;SDS011;66869;57.706;11.922;2023-05-17T03:55:11;0.82;;;0.30;;
13002;SDS011;66869;57.706;11.922;2023-05-17T03:57:36;1.65;;;0.13;;
13002;SDS011;66869;57.706;11.922;2023-05-17T04:00:03;1.25;;;0.15;;
13002;SDS011;66869;57.706;11.922;2023-05-17T04:02:36;0.10;;;0.10;;
13002;SDS011;66869;57.706;11.922;2023-05-17T04:05:03;2.30;;;0.22;;
13002;SDS011;66869;57.706;11.922;2023-05-17T04:07:30;1.08;;;0.15;;
13002;SDS011;66869;57.706;11.922;2023-05-17T04:09:56;0.20;;;0.10;;
13002;SDS011;66869;57.706;11.922;2023-05-17T04:12:42;0.17;;;0.17;;
13002;SDS011;66869;57.706;11.922;2023-05-17T04:15:08;1.65;;;0.30;;
13002;SDS011;66869;57.706;11.922;2023-05-17T04:17:35;0.47;;;0.10;;
13002;SDS011;66869;57.706;11.922;2023-05-17T04:20:01;2.00;;;0.10;;
13002;SDS011;66869;57.706;11.922;2023-05-17T04:22:29;0.35;;;0.20;;
13002;SDS011;66869;57.706;11.922;2023-05-17T04:24:55;1.92;;;0.20;;
13002;SDS011;66869;57.706;11.922;2023-05-17T04:27:22;0.75;;;0.20;;
13002;SDS011;66869;57.706;11.922;2023-05-17T04:29:49;0.95;;;0.38;;
13002;SDS011;66869;57.706;11.922;2023-05-17T04:32:17;0.68;;;0.10;;
13002;SDS011;66869;57.706;11.922;2023-05-17T04:34:42;0.52;;;0.10;;
13002;SDS011;66869;57.706;11.922;2023-05-17T04:37:08;0.10;;;0.10;;
13002;SDS011;66869;57.706;11.922;2023-05-17T04:39:35;0.68;;;0.20;;
13002;SDS011;66869;57.706;11.922;2023-05-17T04:42:01;0.10;;;0.10;;
13002;SDS011;66869;57.706;11.922;2023-05-17T04:44:30;26.08;;;5.15;;
13002;SDS011;66869;57.706;11.922;2023-05-17T04:46:55;37.17;;;7.25;;
13002;SDS011;66869;57.706;11.922;2023-05-17T04:49:22;34.60;;;7.53;;
13002;SDS011;66869;57.706;11.922;2023-05-17T04:51:49;30.00;;;7.43;;
13002;SDS011;66869;57.706;11.922;2023-05-17T04:54:16;27.33;;;5.13;;
13002;SDS011;66869;57.706;11.922;2023-05-17T04:56:42;21.58;;;4.80;;
13002;SDS011;66869;57.706;11.922;2023-05-17T04:59:09;12.57;;;3.47;;
13002;SDS011;66869;57.706;11.922;2023-05-17T05:01:37;13.68;;;3.20;;
13002;SDS011;66869;57.706;11.922;2023-05-17T05:04:03;11.18;;;2.70;;
13002;SDS011;66869;57.706;11.922;2023-05-17T05:06:32;10.20;;;2.40;;
13002;SDS011;66869;57.706;11.922;2023-05-17T05:08:59;10.60;;;2.22;;
13002;SDS011;66869;57.706;11.922;2023-05-17T05:11:26;13.80;;;2.28;;
13002;SDS011;66869;57.706;11.922;2023-05-17T05:13:52;9.00;;;2.05;;
13002;SDS011;66869;57.706;11.922;2023-05-17T05:16:19;5.30;;;1.70;;
13002;SDS011;66869;57.706;11.922;2023-05-17T05:18:45;6.05;;;1.45;;
13002;SDS011;66869;57.706;11.922;2023-05-17T05:21:10;8.57;;;1.50;;
13002;SDS011;66869;57.706;11.922;2023-05-17T05:23:37;5.45;;;1.30;;
13002;SDS011;66869;57.706;11.922;2023-05-17T05:26:04;4.55;;;1.10;;
13002;SDS011;66869;57.706;11.922;2023-05-17T05:28:29;5.90;;;1.23;;
13002;SDS011;66869;57.706;11.922;2023-05-17T05:30:57;2.20;;;0.85;;
13002;SDS011;66869;57.706;11.922;2023-05-17T05:33:24;4.13;;;0.80;;
13002;SDS011;66869;57.706;11.922;2023-05-17T05:35:51;2.65;;;0.70;;
13002;SDS011;66869;57.706;11.922;2023-05-17T05:38:18;2.00;;;0.65;;
13002;SDS011;66869;57.706;11.922;2023-05-17T05:40:48;3.42;;;0.77;;
13002;SDS011;66869;57.706;11.922;2023-05-17T05:43:15;2.30;;;0.43;;
13002;SDS011;66869;57.706;11.922;2023-05-17T05:45:43;2.13;;;0.50;;
13002;SDS011;66869;57.706;11.922;2023-05-17T05:48:12;1.80;;;0.50;;
13002;SDS011;66869;57.706;11.922;2023-05-17T05:50:39;1.48;;;0.40;;
13002;SDS011;66869;57.706;11.922;2023-05-17T05:53:08;0.30;;;0.30;;
13002;SDS011;66869;57.706;11.922;2023-05-17T05:55:34;0.40;;;0.30;;
13002;SDS011;66869;57.706;11.922;2023-05-17T05:58:01;2.30;;;0.38;;
13002;SDS011;66869;57.706;11.922;2023-05-17T06:00:28;0.68;;;0.40;;
13002;SDS011;66869;57.706;11.922;2023-05-17T06:02:53;0.30;;;0.30;;
13002;SDS011;66869;57.706;11.922;2023-05-17T06:05:18;0.55;;;0.30;;
13002;SDS011;66869;57.706;11.922;2023-05-17T06:07:43;0.40;;;0.10;;
13002;SDS011;66869;57.706;11.922;2023-05-17T06:10:10;0.20;;;0.20;;
13002;SDS011;66869;57.706;11.922;2023-05-17T06:12:37;0.25;;;0.20;;
13002;SDS011;66869;57.706;11.922;2023-05-17T06:15:02;0.85;;;0.20;;
13002;SDS011;66869;57.706;11.922;2023-05-17T06:17:29;0.45;;;0.20;;
13002;SDS011;66869;57.706;11.922;2023-05-17T06:19:56;0.20;;;0.10;;
13002;SDS011;66869;57.706;11.922;2023-05-17T06:22:21;0.38;;;0.10;;
13002;SDS011;66869;57.706;11.922;2023-05-17T06:24:47;0.10;;;0.10;;
13002;SDS011;66869;57.706;11.922;2023-05-17T06:27:13;0.10;;;0.10;;
13002;SDS011;66869;57.706;11.922;2023-05-17T06:29:39;0.25;;;0.10;;
13002;SDS011;66869;57.706;11.922;2023-05-17T06:32:05;0.57;;;0.10;;
13002;SDS011;66869;57.706;11.922;2023-05-17T06:34:35;0.45;;;0.10;;
13002;SDS011;66869;57.706;11.922;2023-05-17T06:37:00;0.98;;;0.13;;
13002;SDS011;66869;57.706;11.922;2023-05-17T06:39:27;0.10;;;0.10;;
13002;SDS011;66869;57.706;11.922;2023-05-17T06:41:52;0.10;;;0.08;;
13002;SDS011;66869;57.706;11.922;2023-05-17T06:44:18;0.00;;;0.00;;
13002;SDS011;66869;57.706;11.922;2023-05-17T06:46:45;0.22;;;0.10;;
13002;SDS011;66869;57.706;11.922;2023-05-17T06:49:11;0.28;;;0.10;;
13002;SDS011;66869;57.706;11.922;2023-05-17T06:51:39;0.10;;;0.10;;
13002;SDS011;66869;57.706;11.922;2023-05-17T06:54:06;0.03;;;0.03;;
13002;SDS011;66869;57.706;11.922;2023-05-17T06:56:33;0.10;;;0.10;;
13002;SDS011;66869;57.706;11.922;2023-05-17T06:58:59;0.00;;;0.00;;
13002;SDS011;66869;57.706;11.922;2023-05-17T07:01:26;0.00;;;0.00;;
13002;SDS011;66869;57.706;11.922;2023-05-17T07:03:54;0.10;;;0.10;;
13002;SDS011;66869;57.706;11.922;2023-05-17T07:06:20;0.00;;;0.00;;
13002;SDS011;66869;57.706;11.922;2023-05-17T07:08:47;0.15;;;0.10;;
13002;SDS011;66869;57.706;11.922;2023-05-17T07:11:15;0.10;;;0.10;;
13002;SDS011;66869;57.706;11.922;2023-05-17T07:13:41;0.00;;;0.00;;
13002;SDS011;66869;57.706;11.922;2023-05-17T07:16:06;0.03;;;0.03;;
13002;SDS011;66869;57.706;11.922;2023-05-17T07:18:33;0.00;;;0.00;;
13002;SDS011;66869;57.706;11.922;2023-05-17T07:20:59;0.10;;;0.10;;
13002;SDS011;66869;57.706;11.922;2023-05-17T07:23:26;0.00;;;0.00;;
13002;SDS011;66869;57.706;11.922;2023-05-17T07:25:52;0.00;;;0.00;;
13002;SDS011;66869;57.706;11.922;2023-05-17T07:28:18;0.00;;;0.00;;
13002;SDS011;66869;57.706;11.922;2023-05-17T07:30:45;0.00;;;0.00;;
13002;SDS011;66869;57.706;11.922;2023-05-17T07:33:11;0.00;;;0.00;;
13002;SDS011;66869;57.706;11.922;2023-05-17T07:35:38;0.10;;;0.10;;
13002;SDS011;66869;57.706;11.922;2023-05-17T07:38:04;0.00;;;0.00;;
13002;SDS011;66869;57.706;11.922;2023-05-17T07:40:30;0.00;;;0.00;;
13002;SDS011;66869;57.706;11.922;2023-05-17T07:42:56;0.10;;;0.10;;
13002;SDS011;66869;57.706;11.922;2023-05-17T07:45:23;0.17;;;0.10;;
13002;SDS011;66869;57.706;11.922;2023-05-17T07:47:59;0.00;;;0.00;;
13002;SDS011;66869;57.706;11.922;2023-05-17T07:50:25;0.20;;;0.10;;
13002;SDS011;66869;57.706;11.922;2023-05-17T07:52:53;0.00;;;0.00;;
13002;SDS011;66869;57.706;11.922;2023-05-17T07:55:22;0.00;;;0.00;;
13002;SDS011;66869;57.706;11.922;2023-05-17T07:57:49;0.00;;;0.00;;
13002;SDS011;66869;57.706;11.922;2023-05-17T08:00:15;0.00;;;0.00;;
13002;SDS011;66869;57.706;11.922;2023-05-17T08:02:44;0.10;;;0.03;;
13002;SDS011;66869;57.706;11.922;2023-05-17T08:05:12;0.10;;;0.10;;
13002;SDS011;66869;57.706;11.922;2023-05-17T08:07:38;0.03;;;0.03;;
13002;SDS011;66869;57.706;11.922;2023-05-17T08:10:05;0.00;;;0.00;;
13002;SDS011;66869;57.706;11.922;2023-05-17T08:12:32;0.10;;;0.10;;
13002;SDS011;66869;57.706;11.922;2023-05-17T08:14:58;0.00;;;0.00;;
13002;SDS011;66869;57.706;11.922;2023-05-17T08:17:25;0.00;;;0.00;;
13002;SDS011;66869;57.706;11.922;2023-05-17T08:19:51;0.00;;;0.00;;
13002;SDS011;66869;57.706;11.922;2023-05-17T08:22:18;0.00;;;0.00;;
13002;SDS011;66869;57.706;11.922;2023-05-17T08:24:45;0.10;;;0.10;;
13002;SDS011;66869;57.706;11.922;2023-05-17T08:27:12;0.00;;;0.00;;
13002;SDS011;66869;57.706;11.922;2023-05-17T08:29:38;0.00;;;0.00;;
13002;SDS011;66869;57.706;11.922;2023-05-17T08:32:05;0.00;;;0.00;;
13002;SDS011;66869;57.706;11.922;2023-05-17T08:34:33;0.00;;;0.00;;
13002;SDS011;66869;57.706;11.922;2023-05-17T08:37:00;0.35;;;0.00;;
13002;SDS011;66869;57.706;11.922;2023-05-17T08:39:26;0.00;;;0.00;;
13002;SDS011;66869;57.706;11.922;2023-05-17T08:41:52;0.00;;;0.00;;
13002;SDS011;66869;57.706;11.922;2023-05-17T08:44:22;0.15;;;0.10;;
13002;SDS011;66869;57.706;11.922;2023-05-17T08:46:48;0.00;;;0.00;;
13002;SDS011;66869;57.706;11.922;2023-05-17T08:49:22;0.00;;;0.00;;
13002;SDS011;66869;57.706;11.922;2023-05-17T08:51:54;0.10;;;0.00;;
13002;SDS011;66869;57.706;11.922;2023-05-17T08:54:22;0.00;;;0.00;;
13002;SDS011;66869;57.706;11.922;2023-05-17T08:56:50;0.08;;;0.08;;
13002;SDS011;66869;57.706;11.922;2023-05-17T08:59:23;0.10;;;0.10;;
13002;SDS011;66869;57.706;11.922;2023-05-17T09:01:55;0.15;;;0.10;;
13002;SDS011;66869;57.706;11.922;2023-05-17T09:04:22;0.00;;;0.00;;
13002;SDS011;66869;57.706;11.922;2023-05-17T09:06:48;0.05;;;0.05;;
13002;SDS011;66869;57.706;11.922;2023-05-17T09:09:15;0.10;;;0.10;;
13002;SDS011;66869;57.706;11.922;2023-05-17T09:11:53;0.10;;;0.10;;
13002;SDS011;66869;57.706;11.922;2023-05-17T09:14:20;0.10;;;0.10;;
13002;SDS011;66869;57.706;11.922;2023-05-17T09:16:55;0.00;;;0.00;;
13002;SDS011;66869;57.706;11.922;2023-05-17T09:19:27;0.22;;;0.17;;
13002;SDS011;66869;57.706;11.922;2023-05-17T09:21:54;0.10;;;0.10;;
13002;SDS011;66869;57.706;11.922;2023-05-17T09:24:29;0.10;;;0.10;;
13002;SDS011;66869;57.706;11.922;2023-05-17T09:27:04;0.10;;;0.10;;
13002;SDS011;66869;57.706;11.922;2023-05-17T09:29:34;0.10;;;0.10;;
13002;SDS011;66869;57.706;11.922;2023-05-17T09:32:14;1.08;;;0.20;;
13002;SDS011;66869;57.706;11.922;2023-05-17T09:34:39;0.00;;;0.00;;
13002;SDS011;66869;57.706;11.922;2023-05-17T09:37:16;0.10;;;0.10;;
13002;SDS011;66869;57.706;11.922;2023-05-17T09:39:44;0.47;;;0.10;;
13002;SDS011;66869;57.706;11.922;2023-05-17T09:42:11;0.00;;;0.00;;
13002;SDS011;66869;57.706;11.922;2023-05-17T09:44:56;0.17;;;0.00;;
13002;SDS011;66869;57.706;11.922;2023-05-17T09:47:22;0.10;;;0.10;;
13002;SDS011;66869;57.706;11.922;2023-05-17T09:49:49;0.03;;;0.03;;
13002;SDS011;66869;57.706;11.922;2023-05-17T09:52:19;0.10;;;0.10;;
13002;SDS011;66869;57.706;11.922;2023-05-17T09:54:53;1.15;;;0.10;;
13002;SDS011;66869;57.706;11.922;2023-05-17T09:57:20;0.00;;;0.00;;
13002;SDS011;66869;57.706;11.922;2023-05-17T09:59:46;0.10;;;0.00;;
13002;SDS011;66869;57.706;11.922;2023-05-17T10:02:18;0.30;;;0.05;;
13002;SDS011;66869;57.706;11.922;2023-05-17T10:04:45;0.08;;;0.08;;
13002;SDS011;66869;57.706;11.922;2023-05-17T10:07:12;0.08;;;0.08;;
13002;SDS011;66869;57.706;11.922;2023-05-17T10:09:40;0.03;;;0.03;;
13002;SDS011;66869;57.706;11.922;2023-05-17T10:12:07;0.52;;;0.10;;
13002;SDS011;66869;57.706;11.922;2023-05-17T10:14:36;0.13;;;0.08;;
13002;SDS011;66869;57.706;11.922;2023-05-17T10:17:04;0.73;;;0.10;;
13002;SDS011;66869;57.706;11.922;2023-05-17T10:19:32;0.10;;;0.10;;
13002;SDS011;66869;57.706;11.922;2023-05-17T10:21:59;0.05;;;0.05;;
13002;SDS011;66869;57.706;11.922;2023-05-17T10:24:26;0.10;;;0.10;;
13002;SDS011;66869;57.706;11.922;2023-05-17T10:26:56;0.05;;;0.05;;
13002;SDS011;66869;57.706;11.922;2023-05-17T10:29:23;0.00;;;0.00;;
13002;SDS011;66869;57.706;11.922;2023-05-17T10:31:49;0.00;;;0.00;;
13002;SDS011;66869;57.706;11.922;2023-05-17T10:34:16;0.00;;;0.00;;
13002;SDS011;66869;57.706;11.922;2023-05-17T10:36:43;0.00;;;0.00;;
13002;SDS011;66869;57.706;11.922;2023-05-17T10:39:09;0.10;;;0.10;;
13002;SDS011;66869;57.706;11.922;2023-05-17T10:41:39;0.00;;;0.00;;
13002;SDS011;66869;57.706;11.922;2023-05-17T10:44:11;0.10;;;0.10;;
13002;SDS011;66869;57.706;11.922;2023-05-17T10:46:39;0.10;;;0.10;;
13002;SDS011;66869;57.706;11.922;2023-05-17T10:49:05;0.10;;;0.05;;
13002;SDS011;66869;57.706;11.922;2023-05-17T10:51:36;0.00;;;0.00;;
13002;SDS011;66869;57.706;11.922;2023-05-17T10:54:12;0.28;;;0.00;;
13002;SDS011;66869;57.706;11.922;2023-05-17T10:56:51;0.00;;;0.00;;
13002;SDS011;66869;57.706;11.922;2023-05-17T10:59:27;0.10;;;0.10;;
13002;SDS011;66869;57.706;11.922;2023-05-17T11:01:57;0.00;;;0.00;;
13002;SDS011;66869;57.706;11.922;2023-05-17T11:04:31;0.20;;;0.20;;
13002;SDS011;66869;57.706;11.922;2023-05-17T11:10:04;0.10;;;0.10;;
13002;SDS011;66869;57.706;11.922;2023-05-17T11:15:14;0.10;;;0.10;;
13002;SDS011;66869;57.706;11.922;2023-05-17T11:17:47;0.00;;;0.00;;
13002;SDS011;66869;57.706;11.922;2023-05-17T11:22:57;0.20;;;0.10;;
13002;SDS011;66869;57.706;11.922;2023-05-17T11:25:27;0.28;;;0.13;;
13002;SDS011;66869;57.706;11.922;2023-05-17T11:27:53;0.40;;;0.10;;
13002;SDS011;66869;57.706;11.922;2023-05-17T11:30:28;0.00;;;0.00;;
13002;SDS011;66869;57.706;11.922;2023-05-17T11:33:03;0.20;;;0.10;;
13002;SDS011;66869;57.706;11.922;2023-05-17T11:35:33;0.00;;;0.00;;
13002;SDS011;66869;57.706;11.922;2023-05-17T11:38:20;0.10;;;0.10;;
13002;SDS011;66869;57.706;11.922;2023-05-17T11:40:53;0.00;;;0.00;;
13002;SDS011;66869;57.706;11.922;2023-05-17T11:43:20;0.10;;;0.10;;
13002;SDS011;66869;57.706;11.922;2023-05-17T11:45:51;0.10;;;0.10;;
13002;SDS011;66869;57.706;11.922;2023-05-17T11:48:21;0.17;;;0.10;;
13002;SDS011;66869;57.706;11.922;2023-05-17T11:50:53;0.25;;;0.10;;
13002;SDS011;66869;57.706;11.922;2023-05-17T11:53:19;0.20;;;0.10;;
13002;SDS011;66869;57.706;11.922;2023-05-17T11:55:49;1.13;;;0.10;;
13002;SDS011;66869;57.706;11.922;2023-05-17T11:58:17;0.00;;;0.00;;
13002;SDS011;66869;57.706;11.922;2023-05-17T12:00:42;0.10;;;0.10;;
13002;SDS011;66869;57.706;11.922;2023-05-17T12:03:15;0.05;;;0.05;;
13002;SDS011;66869;57.706;11.922;2023-05-17T12:05:45;0.98;;;0.10;;
13002;SDS011;66869;57.706;11.922;2023-05-17T12:08:16;0.20;;;0.20;;
13002;SDS011;66869;57.706;11.922;2023-05-17T12:10:47;0.20;;;0.10;;
13002;SDS011;66869;57.706;11.922;2023-05-17T12:13:14;0.17;;;0.05;;
13002;SDS011;66869;57.706;11.922;2023-05-17T12:15:45;0.45;;;0.13;;
13002;SDS011;66869;57.706;11.922;2023-05-17T12:18:22;0.20;;;0.20;;
13002;SDS011;66869;57.706;11.922;2023-05-17T12:20:57;0.00;;;0.00;;
13002;SDS011;66869;57.706;11.922;2023-05-17T12:23:34;0.10;;;0.10;;
13002;SDS011;66869;57.706;11.922;2023-05-17T12:28:30;0.20;;;0.10;;
13002;SDS011;66869;57.706;11.922;2023-05-17T12:30:55;0.90;;;0.10;;
13002;SDS011;66869;57.706;11.922;2023-05-17T12:33:24;0.17;;;0.08;;
13002;SDS011;66869;57.706;11.922;2023-05-17T12:35:50;0.00;;;0.00;;
13002;SDS011;66869;57.706;11.922;2023-05-17T12:38:17;0.00;;;0.00;;
13002;SDS011;66869;57.706;11.922;2023-05-17T12:40:45;0.10;;;0.10;;
13002;SDS011;66869;57.706;11.922;2023-05-17T12:43:15;0.50;;;0.10;;
13002;SDS011;66869;57.706;11.922;2023-05-17T12:45:41;0.15;;;0.10;;
13002;SDS011;66869;57.706;11.922;2023-05-17T12:48:08;0.10;;;0.10;;
13002;SDS011;66869;57.706;11.922;2023-05-17T12:50:33;0.03;;;0.03;;
13002;SDS011;66869;57.706;11.922;2023-05-17T12:53:06;1.17;;;0.10;;
13002;SDS011;66869;57.706;11.922;2023-05-17T12:55:36;0.13;;;0.13;;
13002;SDS011;66869;57.706;11.922;2023-05-17T12:58:02;0.05;;;0.05;;
13002;SDS011;66869;57.706;11.922;2023-05-17T13:00:29;0.00;;;0.00;;
13002;SDS011;66869;57.706;11.922;2023-05-17T13:02:55;0.38;;;0.13;;
13002;SDS011;66869;57.706;11.922;2023-05-17T13:05:21;0.00;;;0.00;;
13002;SDS011;66869;57.706;11.922;2023-05-17T13:07:47;0.35;;;0.08;;
13002;SDS011;66869;57.706;11.922;2023-05-17T13:10:23;1.20;;;0.13;;
13002;SDS011;66869;57.706;11.922;2023-05-17T13:12:59;0.05;;;0.05;;
13002;SDS011;66869;57.706;11.922;2023-05-17T13:15:26;1.40;;;0.20;;
13002;SDS011;66869;57.706;11.922;2023-05-17T13:17:53;0.20;;;0.10;;
13002;SDS011;66869;57.706;11.922;2023-05-17T13:20:18;0.10;;;0.10;;
13002;SDS011;66869;57.706;11.922;2023-05-17T13:22:44;0.10;;;0.10;;
13002;SDS011;66869;57.706;11.922;2023-05-17T13:25:11;0.85;;;0.10;;
13002;SDS011;66869;57.706;11.922;2023-05-17T13:27:38;0.10;;;0.10;;
13002;SDS011;66869;57.706;11.922;2023-05-17T13:30:11;0.43;;;0.00;;
13002;SDS011;66869;57.706;11.922;2023-05-17T13:32:38;0.08;;;0.00;;
13002;SDS011;66869;57.706;11.922;2023-05-17T13:35:07;0.25;;;0.10;;
13002;SDS011;66869;57.706;11.922;2023-05-17T13:37:34;0.40;;;0.20;;
13002;SDS011;66869;57.706;11.922;2023-05-17T13:40:04;2.17;;;0.10;;
13002;SDS011;66869;57.706;11.922;2023-05-17T13:42:31;0.20;;;0.20;;
13002;SDS011;66869;57.706;11.922;2023-05-17T13:44:58;0.20;;;0.20;;
13002;SDS011;66869;57.706;11.922;2023-05-17T13:47:27;1.35;;;0.25;;
13002;SDS011;66869;57.706;11.922;2023-05-17T13:49:56;0.75;;;0.17;;
13002;SDS011;66869;57.706;11.922;2023-05-17T13:52:22;0.10;;;0.10;;
13002;SDS011;66869;57.706;11.922;2023-05-17T13:54:50;1.65;;;0.20;;
13002;SDS011;66869;57.706;11.922;2023-05-17T13:57:16;0.13;;;0.13;;
13002;SDS011;66869;57.706;11.922;2023-05-17T13:59:44;0.82;;;0.20;;
13002;SDS011;66869;57.706;11.922;2023-05-17T14:02:09;1.30;;;0.10;;
13002;SDS011;66869;57.706;11.922;2023-05-17T14:04:36;1.25;;;0.17;;
13002;SDS011;66869;57.706;11.922;2023-05-17T14:07:03;0.75;;;0.20;;
13002;SDS011;66869;57.706;11.922;2023-05-17T14:09:30;0.30;;;0.10;;
13002;SDS011;66869;57.706;11.922;2023-05-17T14:11:59;0.13;;;0.10;;
13002;SDS011;66869;57.706;11.922;2023-05-17T14:14:26;0.03;;;0.03;;
13002;SDS011;66869;57.706;11.922;2023-05-17T14:16:54;1.77;;;0.20;;
13002;SDS011;66869;57.706;11.922;2023-05-17T14:19:22;0.20;;;0.20;;
13002;SDS011;66869;57.706;11.922;2023-05-17T14:21:48;0.10;;;0.10;;
13002;SDS011;66869;57.706;11.922;2023-05-17T14:24:15;0.32;;;0.10;;
13002;SDS011;66869;57.706;11.922;2023-05-17T14:26:42;0.43;;;0.20;;
13002;SDS011;66869;57.706;11.922;2023-05-17T14:29:09;0.20;;;0.13;;
13002;SDS011;66869;57.706;11.922;2023-05-17T14:31:35;0.20;;;0.10;;
13002;SDS011;66869;57.706;11.922;2023-05-17T14:34:02;0.25;;;0.10;;
13002;SDS011;66869;57.706;11.922;2023-05-17T14:36:30;0.13;;;0.10;;
13002;SDS011;66869;57.706;11.922;2023-05-17T14:38:59;0.17;;;0.10;;
13002;SDS011;66869;57.706;11.922;2023-05-17T14:41:25;0.05;;;0.05;;
13002;SDS011;66869;57.706;11.922;2023-05-17T14:43:54;1.00;;;0.03;;
13002;SDS011;66869;57.706;11.922;2023-05-17T14:46:20;0.08;;;0.05;;
13002;SDS011;66869;57.706;11.922;2023-05-17T14:48:46;0.17;;;0.10;;
13002;SDS011;66869;57.706;11.922;2023-05-17T14:51:12;1.35;;;0.30;;
13002;SDS011;66869;57.706;11.922;2023-05-17T14:53:37;0.20;;;0.20;;
13002;SDS011;66869;57.706;11.922;2023-05-17T14:56:05;0.10;;;0.10;;
13002;SDS011;66869;57.706;11.922;2023-05-17T14:58:31;1.73;;;0.10;;
13002;SDS011;66869;57.706;11.922;2023-05-17T15:00:58;0.70;;;0.20;;